sensor_id;sensor_type;location;lat;lon;timestamp;pressure;altitude;pressure_sealevel;temperature;humidity
54806;BME280;62866;55.776;37.496;2023-03-03T00:01:28;98432.78;;;0.08;81.12
54806;BME280;62866;55.776;37.496;2023-03-03T00:03:55;98422.09;;;0.09;81.36
54806;BME280;62866;55.776;37.496;2023-03-03T00:06:21;98413.88;;;0.04;81.39
54806;BME280;62866;55.776;37.496;2023-03-03T00:08:48;98403.47;;;-0.06;81.63
54806;BME280;62866;55.776;37.496;2023-03-03T00:11:14;98405.25;;;-0.06;81.52
54806;BME280;62866;55.776;37.496;2023-03-03T00:13:47;98413.88;;;0.04;81.78
54806;BME280;62866;55.776;37.496;2023-03-03T00:18:50;98400.19;;;0.00;81.63
54806;BME280;62866;55.776;37.496;2023-03-03T00:21:27;98410.41;;;0.04;81.99
54806;BME280;62866;55.776;37.496;2023-03-03T00:26:44;98391.03;;;0.05;82.34
54806;BME280;62866;55.776;37.496;2023-03-03T00:29:34;98385.16;;;0.11;82.33
54806;BME280;62866;55.776;37.496;2023-03-03T00:32:22;98386.31;;;0.08;82.00
54806;BME280;62866;55.776;37.496;2023-03-03T00:34:50;98371.16;;;0.02;82.07
54806;BME280;62866;55.776;37.496;2023-03-03T00:37:27;98378.72;;;0.05;82.52
54806;BME280;62866;55.776;37.496;2023-03-03T00:39:59;98371.19;;;0.10;82.50
54806;BME280;62866;55.776;37.496;2023-03-03T00:42:27;98367.25;;;0.06;82.42
54806;BME280;62866;55.776;37.496;2023-03-03T00:44:59;98373.13;;;0.00;82.99
54806;BME280;62866;55.776;37.496;2023-03-03T00:50:23;98366.38;;;-0.03;83.46
54806;BME280;62866;55.776;37.496;2023-03-03T00:53:14;98361.81;;;-0.01;83.51
54806;BME280;62866;55.776;37.496;2023-03-03T00:55:42;98348.19;;;0.04;83.69
54806;BME280;62866;55.776;37.496;2023-03-03T00:58:08;98346.19;;;-0.02;84.05
54806;BME280;62866;55.776;37.496;2023-03-03T01:00:34;98347.16;;;-0.03;84.51
54806;BME280;62866;55.776;37.496;2023-03-03T01:03:05;98342.09;;;0.04;84.07
54806;BME280;62866;55.776;37.496;2023-03-03T01:05:32;98346.38;;;0.05;84.37
54806;BME280;62866;55.776;37.496;2023-03-03T01:07:58;98337.97;;;0.01;84.04
54806;BME280;62866;55.776;37.496;2023-03-03T01:10:26;98337.47;;;-0.03;84.47
54806;BME280;62866;55.776;37.496;2023-03-03T01:12:53;98334.38;;;0.02;84.92
54806;BME280;62866;55.776;37.496;2023-03-03T01:15:19;98339.13;;;-0.02;85.44
54806;BME280;62866;55.776;37.496;2023-03-03T01:17:45;98331.25;;;-0.02;85.69
54806;BME280;62866;55.776;37.496;2023-03-03T01:20:15;98334.53;;;0.00;86.13
54806;BME280;62866;55.776;37.496;2023-03-03T01:22:41;98338.66;;;0.03;86.26
54806;BME280;62866;55.776;37.496;2023-03-03T01:25:07;98339.47;;;0.04;86.09
54806;BME280;62866;55.776;37.496;2023-03-03T01:27:33;98330.28;;;-0.01;86.06
54806;BME280;62866;55.776;37.496;2023-03-03T01:29:59;98331.28;;;0.07;87.19
54806;BME280;62866;55.776;37.496;2023-03-03T01:32:26;98327.50;;;0.09;86.98
54806;BME280;62866;55.776;37.496;2023-03-03T01:34:52;98335.38;;;0.09;87.33
54806;BME280;62866;55.776;37.496;2023-03-03T01:37:18;98332.44;;;0.12;87.21
54806;BME280;62866;55.776;37.496;2023-03-03T01:39:47;98339.34;;;0.13;87.23
54806;BME280;62866;55.776;37.496;2023-03-03T01:42:13;98327.72;;;0.16;86.86
54806;BME280;62866;55.776;37.496;2023-03-03T01:44:40;98316.34;;;0.07;86.66
54806;BME280;62866;55.776;37.496;2023-03-03T01:47:24;98325.88;;;0.08;86.84
54806;BME280;62866;55.776;37.496;2023-03-03T01:49:57;98327.03;;;0.14;86.42
54806;BME280;62866;55.776;37.496;2023-03-03T01:52:38;98330.34;;;0.16;86.72
54806;BME280;62866;55.776;37.496;2023-03-03T01:55:22;98317.34;;;0.14;87.11
54806;BME280;62866;55.776;37.496;2023-03-03T01:57:51;98316.03;;;0.18;87.10
54806;BME280;62866;55.776;37.496;2023-03-03T02:00:19;98320.31;;;0.19;87.41
54806;BME280;62866;55.776;37.496;2023-03-03T02:02:45;98312.28;;;0.21;87.10
54806;BME280;62866;55.776;37.496;2023-03-03T02:05:12;98312.94;;;0.23;87.15
54806;BME280;62866;55.776;37.496;2023-03-03T02:07:38;98299.94;;;0.13;86.76
54806;BME280;62866;55.776;37.496;2023-03-03T02:12:45;98308.53;;;0.31;87.44
54806;BME280;62866;55.776;37.496;2023-03-03T02:15:23;98303.13;;;0.33;87.51
54806;BME280;62866;55.776;37.496;2023-03-03T02:17:52;98295.06;;;0.34;87.33
54806;BME280;62866;55.776;37.496;2023-03-03T02:20:31;98286.19;;;0.35;87.49
54806;BME280;62866;55.776;37.496;2023-03-03T02:28:15;98270.09;;;0.38;86.82
54806;BME280;62866;55.776;37.496;2023-03-03T02:30:41;98267.78;;;0.35;87.14
54806;BME280;62866;55.776;37.496;2023-03-03T02:33:07;98265.69;;;0.39;87.22
54806;BME280;62866;55.776;37.496;2023-03-03T02:35:35;98271.25;;;0.36;86.89
54806;BME280;62866;55.776;37.496;2023-03-03T02:40:35;98262.34;;;0.21;87.87
54806;BME280;62866;55.776;37.496;2023-03-03T02:43:03;98246.41;;;0.14;87.87
54806;BME280;62866;55.776;37.496;2023-03-03T02:45:30;98249.03;;;0.14;88.45
54806;BME280;62866;55.776;37.496;2023-03-03T02:47:56;98246.06;;;0.17;88.81
54806;BME280;62866;55.776;37.496;2023-03-03T02:50:21;98257.63;;;0.32;88.58
54806;BME280;62866;55.776;37.496;2023-03-03T02:52:47;98257.94;;;0.37;88.20
54806;BME280;62866;55.776;37.496;2023-03-03T02:55:12;98253.66;;;0.36;88.06
54806;BME280;62866;55.776;37.496;2023-03-03T02:57:38;98251.19;;;0.35;88.01
54806;BME280;62866;55.776;37.496;2023-03-03T03:00:04;98241.84;;;0.41;88.61
54806;BME280;62866;55.776;37.496;2023-03-03T03:02:30;98247.94;;;0.41;88.28
54806;BME280;62866;55.776;37.496;2023-03-03T03:04:55;98256.31;;;0.45;88.03
54806;BME280;62866;55.776;37.496;2023-03-03T03:07:21;98249.38;;;0.35;88.11
54806;BME280;62866;55.776;37.496;2023-03-03T03:09:46;98242.97;;;0.30;87.78
54806;BME280;62866;55.776;37.496;2023-03-03T03:12:14;98245.59;;;0.22;88.03
54806;BME280;62866;55.776;37.496;2023-03-03T03:14:40;98244.06;;;0.11;88.01
54806;BME280;62866;55.776;37.496;2023-03-03T03:17:05;98245.38;;;-0.01;88.05
54806;BME280;62866;55.776;37.496;2023-03-03T03:19:31;98235.00;;;-0.11;88.45
54806;BME280;62866;55.776;37.496;2023-03-03T03:21:56;98240.56;;;-0.14;88.71
54806;BME280;62866;55.776;37.496;2023-03-03T03:24:22;98245.66;;;-0.12;89.19
54806;BME280;62866;55.776;37.496;2023-03-03T03:26:47;98233.47;;;-0.21;89.14
54806;BME280;62866;55.776;37.496;2023-03-03T03:29:13;98237.59;;;-0.19;89.82
54806;BME280;62866;55.776;37.496;2023-03-03T03:31:39;98248.09;;;-0.19;89.81
54806;BME280;62866;55.776;37.496;2023-03-03T03:34:04;98242.31;;;-0.22;90.19
54806;BME280;62866;55.776;37.496;2023-03-03T03:36:30;98236.63;;;-0.18;90.62
54806;BME280;62866;55.776;37.496;2023-03-03T03:38:55;98218.53;;;-0.21;90.85
54806;BME280;62866;55.776;37.496;2023-03-03T03:41:21;98235.66;;;-0.09;90.78
54806;BME280;62866;55.776;37.496;2023-03-03T03:43:46;98233.81;;;-0.16;90.36
54806;BME280;62866;55.776;37.496;2023-03-03T03:46:12;98209.97;;;-0.31;90.53
54806;BME280;62866;55.776;37.496;2023-03-03T03:48:37;98227.72;;;-0.17;90.65
54806;BME280;62866;55.776;37.496;2023-03-03T03:51:03;98205.41;;;-0.21;90.97
54806;BME280;62866;55.776;37.496;2023-03-03T03:53:29;98225.63;;;-0.13;91.21
54806;BME280;62866;55.776;37.496;2023-03-03T03:55:55;98220.88;;;-0.10;91.38
54806;BME280;62866;55.776;37.496;2023-03-03T03:58:20;98216.25;;;-0.08;91.47
54806;BME280;62866;55.776;37.496;2023-03-03T04:00:46;98220.06;;;-0.10;91.80
54806;BME280;62866;55.776;37.496;2023-03-03T04:03:12;98209.22;;;-0.07;91.45
54806;BME280;62866;55.776;37.496;2023-03-03T04:05:40;98216.25;;;-0.08;91.99
54806;BME280;62866;55.776;37.496;2023-03-03T04:08:06;98208.72;;;-0.11;91.77
54806;BME280;62866;55.776;37.496;2023-03-03T04:10:32;98211.50;;;-0.12;91.95
54806;BME280;62866;55.776;37.496;2023-03-03T04:12:57;98209.34;;;-0.17;92.56
54806;BME280;62866;55.776;37.496;2023-03-03T04:15:23;98207.53;;;-0.16;92.54
54806;BME280;62866;55.776;37.496;2023-03-03T04:17:48;98202.50;;;-0.10;92.42
54806;BME280;62866;55.776;37.496;2023-03-03T04:20:14;98206.09;;;-0.11;92.69
54806;BME280;62866;55.776;37.496;2023-03-03T04:22:41;98206.91;;;-0.18;92.98
54806;BME280;62866;55.776;37.496;2023-03-03T04:25:08;98205.91;;;-0.17;93.10
54806;BME280;62866;55.776;37.496;2023-03-03T04:27:36;98209.41;;;-0.09;93.42
54806;BME280;62866;55.776;37.496;2023-03-03T04:30:04;98205.78;;;0.00;93.66
54806;BME280;62866;55.776;37.496;2023-03-03T04:32:30;98185.09;;;-0.03;93.49
54806;BME280;62866;55.776;37.496;2023-03-03T04:34:58;98198.56;;;0.03;93.36
54806;BME280;62866;55.776;37.496;2023-03-03T04:37:24;98204.19;;;0.08;93.44
54806;BME280;62866;55.776;37.496;2023-03-03T04:39:49;98210.59;;;0.13;93.29
54806;BME280;62866;55.776;37.496;2023-03-03T04:42:15;98200.75;;;0.15;93.15
54806;BME280;62866;55.776;37.496;2023-03-03T04:44:41;98203.16;;;0.09;92.89
54806;BME280;62866;55.776;37.496;2023-03-03T04:47:06;98192.00;;;-0.02;92.86
54806;BME280;62866;55.776;37.496;2023-03-03T04:49:32;98200.88;;;0.06;93.14
54806;BME280;62866;55.776;37.496;2023-03-03T04:51:57;98204.16;;;-0.01;93.03
54806;BME280;62866;55.776;37.496;2023-03-03T04:54:23;98206.13;;;0.06;93.19
54806;BME280;62866;55.776;37.496;2023-03-03T04:56:48;98207.63;;;0.08;93.18
54806;BME280;62866;55.776;37.496;2023-03-03T04:59:14;98199.06;;;0.06;93.41
54806;BME280;62866;55.776;37.496;2023-03-03T05:01:39;98215.53;;;0.16;93.42
54806;BME280;62866;55.776;37.496;2023-03-03T05:04:05;98194.16;;;0.11;93.32
54806;BME280;62866;55.776;37.496;2023-03-03T05:06:31;98201.22;;;0.11;93.08
54806;BME280;62866;55.776;37.496;2023-03-03T05:08:57;98206.31;;;0.12;92.93
54806;BME280;62866;55.776;37.496;2023-03-03T05:11:22;98210.59;;;0.13;93.31
54806;BME280;62866;55.776;37.496;2023-03-03T05:13:48;98213.22;;;0.13;92.90
54806;BME280;62866;55.776;37.496;2023-03-03T05:16:13;98204.50;;;0.13;93.06
54806;BME280;62866;55.776;37.496;2023-03-03T05:18:39;98211.59;;;0.20;93.07
54806;BME280;62866;55.776;37.496;2023-03-03T05:21:04;98205.34;;;0.21;93.42
54806;BME280;62866;55.776;37.496;2023-03-03T05:23:30;98215.88;;;0.29;93.77
54806;BME280;62866;55.776;37.496;2023-03-03T05:25:56;98216.69;;;0.38;93.85
54806;BME280;62866;55.776;37.496;2023-03-03T05:28:21;98207.00;;;0.38;94.00
54806;BME280;62866;55.776;37.496;2023-03-03T05:30:47;98223.31;;;0.50;93.90
54806;BME280;62866;55.776;37.496;2023-03-03T05:33:14;98214.91;;;0.47;94.20
54806;BME280;62866;55.776;37.496;2023-03-03T05:35:40;98220.31;;;0.53;94.24
54806;BME280;62866;55.776;37.496;2023-03-03T05:38:05;98208.81;;;0.54;94.31
54806;BME280;62866;55.776;37.496;2023-03-03T05:40:31;98217.84;;;0.60;94.35
54806;BME280;62866;55.776;37.496;2023-03-03T05:42:57;98223.31;;;0.74;94.08
54806;BME280;62866;55.776;37.496;2023-03-03T05:45:23;98213.94;;;0.72;94.03
54806;BME280;62866;55.776;37.496;2023-03-03T05:47:51;98213.94;;;0.80;93.88
54806;BME280;62866;55.776;37.496;2023-03-03T05:50:19;98217.06;;;0.84;94.02
54806;BME280;62866;55.776;37.496;2023-03-03T05:52:49;98219.50;;;0.77;94.08
54806;BME280;62866;55.776;37.496;2023-03-03T05:55:15;98215.88;;;0.78;94.16
54806;BME280;62866;55.776;37.496;2023-03-03T05:57:40;98210.97;;;0.75;94.37
54806;BME280;62866;55.776;37.496;2023-03-03T06:00:06;98212.94;;;0.81;94.28
54806;BME280;62866;55.776;37.496;2023-03-03T06:02:33;98220.97;;;0.96;94.37
54806;BME280;62866;55.776;37.496;2023-03-03T06:04:59;98223.91;;;1.09;94.38
54806;BME280;62866;55.776;37.496;2023-03-03T06:07:25;98220.78;;;1.13;94.35
54806;BME280;62866;55.776;37.496;2023-03-03T06:09:50;98225.91;;;1.07;94.22
54806;BME280;62866;55.776;37.496;2023-03-03T06:12:16;98224.13;;;0.99;94.48
54806;BME280;62866;55.776;37.496;2023-03-03T06:14:41;98221.66;;;0.98;94.32
54806;BME280;62866;55.776;37.496;2023-03-03T06:17:07;98230.50;;;1.13;94.21
54806;BME280;62866;55.776;37.496;2023-03-03T06:19:33;98223.75;;;1.19;93.55
54806;BME280;62866;55.776;37.496;2023-03-03T06:21:58;98223.25;;;1.23;92.97
54806;BME280;62866;55.776;37.496;2023-03-03T06:24:24;98228.34;;;1.33;92.41
54806;BME280;62866;55.776;37.496;2023-03-03T06:26:55;98210.53;;;1.35;92.18
54806;BME280;62866;55.776;37.496;2023-03-03T06:29:20;98215.28;;;1.47;91.56
54806;BME280;62866;55.776;37.496;2023-03-03T06:31:46;98197.19;;;1.44;91.55
54806;BME280;62866;55.776;37.496;2023-03-03T06:34:11;98228.72;;;1.61;91.00
54806;BME280;62866;55.776;37.496;2023-03-03T06:36:37;98232.06;;;1.55;91.33
54806;BME280;62866;55.776;37.496;2023-03-03T06:39:02;98224.19;;;1.38;91.18
54806;BME280;62866;55.776;37.496;2023-03-03T06:41:28;98218.59;;;1.49;92.18
54806;BME280;62866;55.776;37.496;2023-03-03T06:43:53;98228.91;;;1.51;91.87
54806;BME280;62866;55.776;37.496;2023-03-03T06:46:19;98237.00;;;1.58;91.96
54806;BME280;62866;55.776;37.496;2023-03-03T06:48:45;98231.03;;;1.64;91.79
54806;BME280;62866;55.776;37.496;2023-03-03T06:53:48;98229.13;;;1.88;92.07
54806;BME280;62866;55.776;37.496;2023-03-03T06:56:14;98236.84;;;1.98;91.70
54806;BME280;62866;55.776;37.496;2023-03-03T06:58:41;98232.72;;;1.96;91.56
54806;BME280;62866;55.776;37.496;2023-03-03T07:01:15;98238.56;;;1.83;91.48
54806;BME280;62866;55.776;37.496;2023-03-03T07:03:40;98244.28;;;1.86;91.45
54806;BME280;62866;55.776;37.496;2023-03-03T07:06:25;98245.66;;;1.74;91.17
54806;BME280;62866;55.776;37.496;2023-03-03T07:08:53;98239.44;;;1.59;91.50
54806;BME280;62866;55.776;37.496;2023-03-03T07:11:21;98253.13;;;1.55;91.49
54806;BME280;62866;55.776;37.496;2023-03-03T07:13:52;98251.00;;;1.58;91.63
54806;BME280;62866;55.776;37.496;2023-03-03T07:16:24;98235.50;;;1.55;91.57
54806;BME280;62866;55.776;37.496;2023-03-03T07:18:54;98242.78;;;1.37;91.64
54806;BME280;62866;55.776;37.496;2023-03-03T07:21:32;98245.59;;;1.27;91.61
54806;BME280;62866;55.776;37.496;2023-03-03T07:24:00;98243.16;;;1.34;91.98
54806;BME280;62866;55.776;37.496;2023-03-03T07:26:29;98243.16;;;1.34;91.92
54806;BME280;62866;55.776;37.496;2023-03-03T07:29:03;98246.06;;;1.47;91.66
54806;BME280;62866;55.776;37.496;2023-03-03T07:31:38;98244.09;;;1.49;90.99
54806;BME280;62866;55.776;37.496;2023-03-03T07:34:37;98239.16;;;1.46;90.13
54806;BME280;62866;55.776;37.496;2023-03-03T07:37:34;98246.41;;;1.44;90.20
54806;BME280;62866;55.776;37.496;2023-03-03T07:40:38;98249.22;;;1.34;90.31
54806;BME280;62866;55.776;37.496;2023-03-03T07:45:59;98242.91;;;1.51;90.72
54806;BME280;62866;55.776;37.496;2023-03-03T07:48:33;98257.53;;;1.62;91.45
54806;BME280;62866;55.776;37.496;2023-03-03T07:51:04;98259.69;;;1.67;90.99
54806;BME280;62866;55.776;37.496;2023-03-03T07:53:36;98253.91;;;1.63;90.34
54806;BME280;62866;55.776;37.496;2023-03-03T07:56:11;98252.13;;;1.64;90.63
54806;BME280;62866;55.776;37.496;2023-03-03T07:58:40;98244.88;;;1.66;90.84
54806;BME280;62866;55.776;37.496;2023-03-03T08:04:01;98250.38;;;2.18;90.60
54806;BME280;62866;55.776;37.496;2023-03-03T08:11:59;98236.22;;;2.50;89.48
54806;BME280;62866;55.776;37.496;2023-03-03T08:14:29;98256.97;;;2.76;88.97
54806;BME280;62866;55.776;37.496;2023-03-03T08:16:56;98252.16;;;2.56;88.63
54806;BME280;62866;55.776;37.496;2023-03-03T08:19:22;98260.41;;;2.53;88.13
54806;BME280;62866;55.776;37.496;2023-03-03T08:21:48;98252.75;;;2.36;88.83
54806;BME280;62866;55.776;37.496;2023-03-03T08:24:14;98258.25;;;2.26;88.69
54806;BME280;62866;55.776;37.496;2023-03-03T08:26:39;98259.78;;;2.20;88.70
54806;BME280;62866;55.776;37.496;2023-03-03T08:29:05;98264.06;;;2.21;89.50
54806;BME280;62866;55.776;37.496;2023-03-03T08:31:31;98249.31;;;2.04;88.65
54806;BME280;62866;55.776;37.496;2023-03-03T08:33:56;98258.94;;;2.20;88.72
54806;BME280;62866;55.776;37.496;2023-03-03T08:36:23;98267.41;;;2.15;88.52
54806;BME280;62866;55.776;37.496;2023-03-03T08:38:48;98270.16;;;2.22;88.39
54806;BME280;62866;55.776;37.496;2023-03-03T08:41:14;98266.44;;;2.39;88.00
54806;BME280;62866;55.776;37.496;2023-03-03T08:43:39;98261.28;;;2.46;87.75
54806;BME280;62866;55.776;37.496;2023-03-03T08:46:06;98265.69;;;2.53;86.64
54806;BME280;62866;55.776;37.496;2023-03-03T08:48:34;98264.69;;;2.77;86.32
54806;BME280;62866;55.776;37.496;2023-03-03T08:51:00;98269.09;;;3.08;85.93
54806;BME280;62866;55.776;37.496;2023-03-03T08:53:26;98268.38;;;3.28;84.74
54806;BME280;62866;55.776;37.496;2023-03-03T08:55:52;98278.69;;;3.38;83.41
54806;BME280;62866;55.776;37.496;2023-03-03T08:58:19;98272.97;;;3.34;83.67
54806;BME280;62866;55.776;37.496;2023-03-03T09:00:45;98274.59;;;3.35;84.51
54806;BME280;62866;55.776;37.496;2023-03-03T09:03:10;98278.44;;;3.48;83.95
54806;BME280;62866;55.776;37.496;2023-03-03T09:05:38;98277.81;;;3.46;84.30
54806;BME280;62866;55.776;37.496;2023-03-03T09:08:05;98282.34;;;3.52;84.42
54806;BME280;62866;55.776;37.496;2023-03-03T09:10:31;98276.00;;;3.61;84.63
54806;BME280;62866;55.776;37.496;2023-03-03T09:12:59;98270.81;;;3.97;83.58
54806;BME280;62866;55.776;37.496;2023-03-03T09:15:30;98270.09;;;3.88;81.92
54806;BME280;62866;55.776;37.496;2023-03-03T09:17:58;98277.19;;;3.88;81.93
54806;BME280;62866;55.776;37.496;2023-03-03T09:20:34;98274.66;;;3.65;82.61
54806;BME280;62866;55.776;37.496;2023-03-03T09:23:28;98272.53;;;3.46;82.82
54806;BME280;62866;55.776;37.496;2023-03-03T09:25:56;98272.91;;;3.42;83.34
54806;BME280;62866;55.776;37.496;2023-03-03T09:30:51;98279.75;;;3.14;83.87
54806;BME280;62866;55.776;37.496;2023-03-03T09:33:50;98282.41;;;3.14;83.94
54806;BME280;62866;55.776;37.496;2023-03-03T09:36:27;98280.75;;;3.13;82.87
54806;BME280;62866;55.776;37.496;2023-03-03T09:38:55;98279.84;;;3.21;82.86
54806;BME280;62866;55.776;37.496;2023-03-03T09:47:43;98277.88;;;3.23;83.67
54806;BME280;62866;55.776;37.496;2023-03-03T09:58:15;98280.41;;;3.16;84.47
54806;BME280;62866;55.776;37.496;2023-03-03T10:09:14;98269.91;;;3.75;82.70
54806;BME280;62866;55.776;37.496;2023-03-03T10:11:49;98273.16;;;3.62;81.67
54806;BME280;62866;55.776;37.496;2023-03-03T10:19:38;98262.16;;;3.73;80.46
54806;BME280;62866;55.776;37.496;2023-03-03T10:23:20;98265.97;;;3.71;80.50
54806;BME280;62866;55.776;37.496;2023-03-03T10:33:53;98266.88;;;4.58;78.94
54806;BME280;62866;55.776;37.496;2023-03-03T10:39:36;98265.06;;;4.44;77.25
54806;BME280;62866;55.776;37.496;2023-03-03T10:42:16;98267.75;;;4.29;75.39
54806;BME280;62866;55.776;37.496;2023-03-03T10:50:19;98272.41;;;4.27;75.63
54806;BME280;62866;55.776;37.496;2023-03-03T10:52:50;98269.84;;;4.19;75.95
54806;BME280;62866;55.776;37.496;2023-03-03T11:00:57;98271.63;;;4.48;74.15
54806;BME280;62866;55.776;37.496;2023-03-03T11:06:33;98272.81;;;4.45;73.08
54806;BME280;62866;55.776;37.496;2023-03-03T11:09:12;98268.47;;;4.38;73.78
54806;BME280;62866;55.776;37.496;2023-03-03T11:20:41;98267.81;;;4.00;73.82
54806;BME280;62866;55.776;37.496;2023-03-03T11:23:37;98286.03;;;4.09;74.27
54806;BME280;62866;55.776;37.496;2023-03-03T11:31:56;98282.78;;;3.93;73.72
54806;BME280;62866;55.776;37.496;2023-03-03T11:37:09;98291.16;;;3.81;73.87
54806;BME280;62866;55.776;37.496;2023-03-03T11:39:36;98275.91;;;3.98;72.89
54806;BME280;62866;55.776;37.496;2023-03-03T11:42:10;98284.22;;;4.10;72.01
54806;BME280;62866;55.776;37.496;2023-03-03T11:44:45;98278.63;;;4.19;72.30
54806;BME280;62866;55.776;37.496;2023-03-03T11:47:37;98281.16;;;4.42;71.12
54806;BME280;62866;55.776;37.496;2023-03-03T11:55:36;98285.31;;;4.51;70.32
54806;BME280;62866;55.776;37.496;2023-03-03T11:58:44;98275.06;;;4.63;70.74
54806;BME280;62866;55.776;37.496;2023-03-03T12:03:46;98297.69;;;4.87;68.98
54806;BME280;62866;55.776;37.496;2023-03-03T12:11:46;98285.66;;;5.55;65.91
54806;BME280;62866;55.776;37.496;2023-03-03T12:17:00;98284.81;;;5.54;66.29
54806;BME280;62866;55.776;37.496;2023-03-03T12:19:49;98277.88;;;5.53;65.43
54806;BME280;62866;55.776;37.496;2023-03-03T12:22:30;98276.56;;;5.15;65.59
54806;BME280;62866;55.776;37.496;2023-03-03T12:25:14;98273.63;;;4.82;66.00
54806;BME280;62866;55.776;37.496;2023-03-03T12:43:55;98294.72;;;3.36;71.85
54806;BME280;62866;55.776;37.496;2023-03-03T12:46:45;98294.72;;;3.36;72.90
54806;BME280;62866;55.776;37.496;2023-03-03T12:49:16;98291.88;;;3.23;73.70
54806;BME280;62866;55.776;37.496;2023-03-03T12:51:50;98293.88;;;3.21;73.65
54806;BME280;62866;55.776;37.496;2023-03-03T12:54:46;98291.47;;;3.12;73.38
54806;BME280;62866;55.776;37.496;2023-03-03T13:02:48;98302.88;;;2.66;73.83
54806;BME280;62866;55.776;37.496;2023-03-03T13:10:48;98302.94;;;2.58;74.73
54806;BME280;62866;55.776;37.496;2023-03-03T13:16:10;98305.16;;;2.70;75.26
54806;BME280;62866;55.776;37.496;2023-03-03T13:26:35;98285.56;;;2.87;74.65
54806;BME280;62866;55.776;37.496;2023-03-03T13:29:22;98279.00;;;3.05;74.92
54806;BME280;62866;55.776;37.496;2023-03-03T13:32:21;98289.59;;;3.20;74.18
54806;BME280;62866;55.776;37.496;2023-03-03T13:34:58;98282.13;;;3.09;74.40
54806;BME280;62866;55.776;37.496;2023-03-03T13:40:38;98290.09;;;3.38;72.88
54806;BME280;62866;55.776;37.496;2023-03-03T13:43:11;98289.00;;;3.33;73.50
54806;BME280;62866;55.776;37.496;2023-03-03T13:45:50;98285.09;;;3.43;73.98
54806;BME280;62866;55.776;37.496;2023-03-03T13:54:24;98281.22;;;2.94;73.37
54806;BME280;62866;55.776;37.496;2023-03-03T13:57:15;98280.78;;;2.67;73.74
54806;BME280;62866;55.776;37.496;2023-03-03T14:02:46;98292.00;;;2.39;74.67
54806;BME280;62866;55.776;37.496;2023-03-03T14:05:25;98275.22;;;2.32;74.20
54806;BME280;62866;55.776;37.496;2023-03-03T14:08:02;98281.81;;;2.27;74.68
54806;BME280;62866;55.776;37.496;2023-03-03T14:10:48;98268.81;;;2.26;74.81
54806;BME280;62866;55.776;37.496;2023-03-03T14:13:38;98292.75;;;2.47;73.78
54806;BME280;62866;55.776;37.496;2023-03-03T14:16:18;98287.78;;;2.52;73.95
54806;BME280;62866;55.776;37.496;2023-03-03T14:18:57;98284.97;;;2.54;73.64
54806;BME280;62866;55.776;37.496;2023-03-03T14:21:34;98291.41;;;2.51;73.67
54806;BME280;62866;55.776;37.496;2023-03-03T14:24:12;98292.22;;;2.52;73.38
54806;BME280;62866;55.776;37.496;2023-03-03T14:26:53;98291.41;;;2.51;73.04
54806;BME280;62866;55.776;37.496;2023-03-03T14:31:52;98290.13;;;2.47;73.77
54806;BME280;62866;55.776;37.496;2023-03-03T14:34:39;98294.13;;;2.35;73.26
54806;BME280;62866;55.776;37.496;2023-03-03T14:37:24;98294.06;;;2.20;73.92
54806;BME280;62866;55.776;37.496;2023-03-03T14:42:39;98291.63;;;2.11;73.86
54806;BME280;62866;55.776;37.496;2023-03-03T14:45:37;98301.03;;;2.05;74.08
54806;BME280;62866;55.776;37.496;2023-03-03T14:48:24;98264.53;;;1.86;73.51
54806;BME280;62866;55.776;37.496;2023-03-03T14:53:20;98292.19;;;1.98;73.94
54806;BME280;62866;55.776;37.496;2023-03-03T14:55:48;98301.59;;;1.84;74.31
54806;BME280;62866;55.776;37.496;2023-03-03T14:58:30;98297.34;;;1.83;74.04
54806;BME280;62866;55.776;37.496;2023-03-03T15:01:29;98299.31;;;1.81;73.80
54806;BME280;62866;55.776;37.496;2023-03-03T15:06:49;98308.72;;;1.84;73.18
54806;BME280;62866;55.776;37.496;2023-03-03T15:09:33;98302.13;;;1.80;72.78
54806;BME280;62866;55.776;37.496;2023-03-03T15:12:24;98306.06;;;1.76;73.42
54806;BME280;62866;55.776;37.496;2023-03-03T15:14:51;98297.00;;;1.78;73.51
54806;BME280;62866;55.776;37.496;2023-03-03T15:17:33;98301.13;;;1.81;73.20
54806;BME280;62866;55.776;37.496;2023-03-03T15:26:28;98314.53;;;1.55;73.72
54806;BME280;62866;55.776;37.496;2023-03-03T15:28:50;98302.50;;;1.52;73.61
54806;BME280;62866;55.776;37.496;2023-03-03T15:31:30;98311.06;;;1.55;73.64
54806;BME280;62866;55.776;37.496;2023-03-03T15:37:20;98320.47;;;1.49;73.46
54806;BME280;62866;55.776;37.496;2023-03-03T15:42:45;98313.06;;;1.44;73.48
54806;BME280;62866;55.776;37.496;2023-03-03T15:46:03;98314.22;;;1.50;73.71
54806;BME280;62866;55.776;37.496;2023-03-03T15:57:00;98301.22;;;1.48;73.01
54806;BME280;62866;55.776;37.496;2023-03-03T16:02:23;98308.59;;;1.45;73.24
54806;BME280;62866;55.776;37.496;2023-03-03T16:10:36;98306.66;;;1.47;72.73
54806;BME280;62866;55.776;37.496;2023-03-03T16:16:06;98312.75;;;1.39;72.68
54806;BME280;62866;55.776;37.496;2023-03-03T16:19:10;98310.44;;;1.36;72.98
54806;BME280;62866;55.776;37.496;2023-03-03T16:21:58;98307.31;;;1.33;72.72
54806;BME280;62866;55.776;37.496;2023-03-03T16:27:37;98302.22;;;1.31;73.10
54806;BME280;62866;55.776;37.496;2023-03-03T16:30:29;98316.06;;;1.33;72.73
54806;BME280;62866;55.776;37.496;2023-03-03T16:36:02;98307.81;;;1.36;72.97
54806;BME280;62866;55.776;37.496;2023-03-03T16:41:04;98292.03;;;1.20;72.93
54806;BME280;62866;55.776;37.496;2023-03-03T16:44:03;98315.22;;;1.33;73.17
54806;BME280;62866;55.776;37.496;2023-03-03T16:46:33;98313.56;;;1.40;72.78
54806;BME280;62866;55.776;37.496;2023-03-03T16:49:17;98318.16;;;1.38;72.56
54806;BME280;62866;55.776;37.496;2023-03-03T16:52:04;98317.50;;;1.44;72.47
54806;BME280;62866;55.776;37.496;2023-03-03T16:57:27;98317.50;;;1.44;72.49
54806;BME280;62866;55.776;37.496;2023-03-03T17:00:10;98312.72;;;1.47;72.10
54806;BME280;62866;55.776;37.496;2023-03-03T17:03:02;98314.88;;;1.44;71.84
54806;BME280;62866;55.776;37.496;2023-03-03T17:05:51;98316.03;;;1.49;71.93
54806;BME280;62866;55.776;37.496;2023-03-03T17:17:18;98312.38;;;1.42;71.94
54806;BME280;62866;55.776;37.496;2023-03-03T17:25:42;98315.38;;;1.39;72.52